Ellenboro, West Virginia
Current Conditions -  °F | °C
As of 5:24 AM on Thursday 23 Oct 2014 (Local Time) from KPKB Reporting Station
Overcast Overcast  
Wind Chill: 43°   Ceiling: 3800
Heat Index: 46°   Visibility: 10mi
Dew Point: 41°   Wind: 6mph
Humidity: 83%   Direction: 300°WNW
Pressure: 30.22"   Gusts: NA
Location:  39.26°N, 81.06°W
Report Text: KPKB 230924Z AUTO 30005KT 10SM SCT015 OVC038 08/05 A3022 RMK AO2 T00780050
Loading
Personal Weather Stations






























Interactive Weather Map
Tropical Storm Tracking
New forecast layout! Learn more

10-Day Weather Forecast

Advertisements
Track Severe Weather on mobile